createdAt,value
2019-02-28T00:00:54.899Z,13.05
2019-02-28T00:03:26.136Z,12.80
2019-02-28T00:05:54.423Z,13.48
2019-02-28T00:08:23.415Z,14.55
2019-02-28T00:10:52.408Z,14.13
2019-02-28T00:13:22.406Z,12.40
2019-02-28T00:15:51.627Z,13.58
2019-02-28T00:18:20.615Z,12.47
2019-02-28T00:20:49.507Z,13.50
2019-02-28T00:23:19.219Z,13.03
2019-02-28T00:25:48.923Z,13.68
2019-02-28T00:28:17.817Z,15.10
2019-02-28T00:30:46.810Z,15.63
2019-02-28T00:33:15.806Z,14.43
2019-02-28T00:35:45.475Z,14.95
2019-02-28T00:38:14.503Z,15.23
2019-02-28T00:40:43.399Z,14.28
2019-02-28T00:43:12.390Z,12.55
2019-02-28T00:45:41.222Z,13.65
2019-02-28T00:48:10.168Z,11.83
2019-02-28T00:50:39.062Z,12.00
2019-02-28T00:53:07.944Z,10.98
2019-02-28T00:55:36.839Z,12.23
2019-02-28T00:58:05.737Z,11.97
2019-02-28T01:00:37.167Z,11.78
2019-02-28T01:03:05.257Z,11.15
2019-02-28T01:05:36.652Z,10.95
2019-02-28T01:08:04.779Z,10.80
2019-02-28T01:10:38.842Z,10.78
2019-02-28T01:13:04.303Z,11.93
2019-02-28T01:15:33.293Z,11.65
2019-02-28T01:18:02.287Z,10.58
2019-02-28T01:20:31.279Z,12.60
2019-02-28T01:23:00.273Z,14.20
2019-02-28T01:25:29.269Z,17.87
2019-02-28T01:27:58.259Z,22.90
2019-02-28T01:30:27.252Z,25.65
2019-02-28T01:32:56.135Z,24.80
2019-02-28T01:35:25.033Z,26.07
2019-02-28T01:37:53.923Z,27.62
2019-02-28T01:40:22.917Z,27.60
2019-02-28T01:42:54.906Z,27.17
2019-02-28T01:45:22.439Z,26.15
2019-02-28T01:47:51.910Z,22.77
2019-02-28T01:50:21.446Z,25.02
2019-02-28T01:52:50.450Z,25.43
2019-02-28T01:55:19.338Z,26.23
2019-02-28T01:57:48.328Z,24.70
2019-02-28T02:00:18.932Z,23.92
2019-02-28T02:02:47.850Z,23.20
2019-02-28T02:05:17.292Z,22.80
2019-02-28T02:08:07.340Z,25.05
2019-02-28T02:10:36.430Z,29.45
2019-02-28T02:13:05.328Z,31.77
2019-02-28T02:15:34.318Z,37.08
2019-02-28T02:18:06.429Z,39.73
2019-02-28T02:20:33.840Z,39.05
2019-02-28T02:23:02.833Z,35.90
2019-02-28T02:25:31.827Z,33.35
2019-02-28T02:28:00.823Z,30.05
2019-02-28T02:30:29.813Z,24.67
2019-02-28T02:32:58.807Z,17.92
2019-02-28T02:35:27.800Z,17.52
2019-02-28T02:37:56.771Z,17.32
2019-02-28T02:40:25.789Z,13.22
2019-02-28T02:42:54.779Z,10.60
2019-02-28T02:45:23.773Z,8.43
2019-02-28T02:47:52.766Z,7.70
2019-02-28T02:50:21.760Z,6.92
2019-02-28T02:52:50.764Z,5.67
2019-02-28T02:55:19.746Z,5.35
2019-02-28T02:57:51.728Z,5.92
2019-02-28T03:00:19.886Z,5.30
2019-02-28T03:02:48.952Z,5.58
2019-02-28T03:05:37.220Z,7.30
2019-02-28T03:08:06.218Z,8.10
2019-02-28T03:10:35.043Z,6.90
2019-02-28T03:13:05.186Z,6.55
2019-02-28T03:15:34.521Z,5.78
2019-02-28T03:18:03.427Z,5.10
2019-02-28T03:20:32.414Z,5.75
2019-02-28T03:23:03.160Z,7.47
2019-02-28T03:25:31.949Z,9.30
2019-02-28T03:28:00.925Z,9.45
2019-02-28T03:30:32.837Z,8.33
2019-02-28T03:33:00.860Z,8.60
2019-02-28T03:35:40.456Z,7.72
2019-02-28T03:38:00.280Z,7.30
2019-02-28T03:40:29.270Z,6.60
2019-02-28T03:43:05.557Z,6.65
2019-02-28T03:45:33.813Z,6.90
2019-02-28T03:47:59.857Z,7.67
2019-02-28T03:50:28.853Z,9.90
2019-02-28T03:52:57.921Z,12.05
2019-02-28T03:55:27.223Z,11.15
2019-02-28T03:57:56.214Z,10.15
2019-02-28T04:00:32.724Z,9.15
2019-02-28T04:02:58.696Z,8.78
2019-02-28T04:05:28.064Z,8.38
2019-02-28T04:07:57.110Z,8.73
2019-02-28T04:10:25.935Z,8.35
2019-02-28T04:12:54.880Z,8.30
2019-02-28T04:15:23.772Z,8.10
2019-02-28T04:17:52.765Z,9.23
2019-02-28T04:20:21.759Z,8.88
2019-02-28T04:22:50.741Z,8.75
2019-02-28T04:25:24.154Z,10.05
2019-02-28T04:27:50.276Z,10.55
2019-02-28T04:30:19.268Z,13.60
2019-02-28T04:32:48.260Z,12.37
2019-02-28T04:35:17.144Z,10.70
2019-02-28T04:37:47.281Z,11.88
2019-02-28T04:40:16.467Z,10.65
2019-02-28T04:42:45.463Z,9.48
2019-02-28T04:45:14.763Z,9.40
2019-02-28T04:47:43.758Z,10.23
2019-02-28T04:50:13.239Z,9.35
2019-02-28T04:52:46.750Z,10.78
2019-02-28T04:55:12.964Z,10.88
2019-02-28T04:57:41.877Z,9.73
2019-02-28T05:00:13.296Z,9.13
2019-02-28T05:02:42.321Z,9.60
2019-02-28T05:05:12.804Z,9.48
2019-02-28T05:07:41.944Z,10.45
2019-02-28T05:10:12.169Z,9.45
2019-02-28T05:12:41.314Z,10.30
2019-02-28T05:15:12.818Z,10.05
2019-02-28T05:17:41.814Z,11.83
2019-02-28T05:20:12.171Z,12.13
2019-02-28T05:22:41.339Z,13.08
2019-02-28T05:25:17.818Z,10.78
2019-02-28T05:27:42.191Z,11.35
2019-02-28T05:30:19.501Z,12.58
2019-02-28T05:32:46.826Z,12.23
2019-02-28T05:35:15.821Z,11.03
2019-02-28T05:37:48.307Z,9.55
2019-02-28T05:40:16.095Z,16.17
2019-02-28T05:42:45.260Z,13.65
2019-02-28T05:45:15.739Z,12.35
2019-02-28T05:47:47.209Z,9.35
2019-02-28T05:50:16.899Z,10.43
2019-02-28T05:52:45.936Z,8.60
2019-02-28T05:55:14.830Z,9.78
2019-02-28T05:57:44.774Z,10.13
2019-02-28T06:00:18.779Z,11.08
2019-02-28T06:02:47.745Z,7.92
2019-02-28T06:05:16.571Z,6.92
2019-02-28T06:07:45.652Z,9.00
2019-02-28T06:10:15.609Z,7.28
2019-02-28T06:12:45.018Z,8.08
2019-02-28T06:15:17.604Z,10.08
2019-02-28T06:20:17.897Z,8.18
2019-02-28T06:22:45.738Z,9.58
2019-02-28T06:25:22.445Z,10.53
2019-02-28T06:27:49.518Z,7.97
2019-02-28T06:30:17.281Z,7.22
2019-02-28T06:32:46.315Z,4.90
2019-02-28T06:35:17.741Z,7.12
2019-02-28T06:37:45.865Z,7.85
2019-02-28T06:40:15.608Z,5.58
2019-02-28T06:42:46.981Z,4.60
2019-02-28T06:45:19.507Z,6.90
2019-02-28T06:47:50.009Z,5.42
2019-02-28T06:50:19.415Z,5.83
2019-02-28T06:52:48.402Z,8.85
2019-02-28T06:55:18.932Z,6.30
2019-02-28T06:57:47.811Z,4.12
2019-02-28T07:00:17.329Z,4.65
2019-02-28T07:02:46.218Z,4.05
2019-02-28T07:05:15.219Z,4.28
2019-02-28T07:07:45.907Z,4.87
2019-02-28T07:10:18.605Z,5.72
2019-02-28T07:12:47.607Z,8.35
2019-02-28T07:15:24.744Z,5.97
2019-02-28T07:17:51.543Z,8.15
2019-02-28T07:20:20.840Z,8.43
2019-02-28T07:22:54.681Z,8.45
2019-02-28T07:25:20.363Z,8.30
2019-02-28T07:27:49.355Z,6.67
2019-02-28T07:30:20.395Z,4.55
2019-02-28T07:32:56.658Z,4.83
2019-02-28T07:35:25.654Z,5.97
2019-02-28T07:37:54.653Z,8.38
2019-02-28T07:40:23.864Z,8.23
2019-02-28T07:42:52.836Z,11.12
2019-02-28T07:45:21.834Z,12.58
2019-02-28T07:47:52.669Z,6.62
2019-02-28T07:50:21.355Z,4.33
2019-02-28T07:52:50.347Z,4.78
2019-02-28T07:55:22.293Z,3.83
2019-02-28T07:57:53.289Z,3.52
2019-02-28T08:00:22.805Z,3.65
2019-02-28T08:02:51.846Z,4.05
2019-02-28T08:05:20.731Z,6.03
2019-02-28T08:07:52.463Z,4.97
2019-02-28T08:10:25.376Z,3.85
2019-02-28T08:12:54.274Z,2.75
2019-02-28T08:15:24.512Z,2.92
2019-02-28T08:17:53.488Z,2.77
2019-02-28T08:20:22.478Z,2.85
2019-02-28T08:22:51.370Z,3.50
2019-02-28T08:25:20.465Z,5.22
2019-02-28T08:27:49.556Z,4.55
2019-02-28T08:30:23.772Z,3.85
2019-02-28T08:33:05.012Z,3.95
2019-02-28T08:35:34.880Z,6.40
2019-02-28T08:38:06.713Z,6.50
2019-02-28T08:40:35.104Z,5.20
2019-02-28T08:43:03.998Z,5.83
2019-02-28T08:45:33.628Z,9.28
2019-02-28T08:48:03.436Z,7.80
2019-02-28T08:50:32.515Z,7.37
2019-02-28T08:53:07.444Z,6.97
2019-02-28T08:55:38.353Z,7.90
2019-02-28T08:58:06.912Z,8.93
2019-02-28T09:00:37.607Z,10.48
2019-02-28T09:03:06.796Z,11.35
2019-02-28T09:05:35.787Z,11.10
2019-02-28T09:08:04.965Z,10.45
2019-02-28T09:10:33.982Z,10.72
2019-02-28T09:13:07.570Z,9.98
2019-02-28T09:15:33.504Z,12.47
2019-02-28T09:18:02.497Z,11.30
2019-02-28T09:20:31.490Z,15.18
2019-02-28T09:23:02.223Z,13.13
2019-02-28T09:25:31.016Z,16.20
2019-02-28T09:28:00.006Z,15.35
2019-02-28T09:30:43.109Z,10.95
2019-02-28T09:33:11.959Z,12.60
2019-02-28T09:35:45.056Z,11.45
2019-02-28T09:38:13.519Z,9.53
2019-02-28T09:40:41.967Z,12.53
2019-02-28T09:43:10.860Z,10.70
2019-02-28T09:45:41.025Z,12.90
2019-02-28T09:48:10.176Z,8.73
2019-02-28T09:50:39.071Z,12.47
2019-02-28T09:53:08.066Z,12.20
2019-02-28T09:55:37.055Z,9.38
2019-02-28T09:58:06.049Z,10.15
2019-02-28T10:00:35.040Z,10.32
2019-02-28T10:03:04.038Z,8.78
2019-02-28T10:05:33.031Z,6.10
2019-02-28T10:08:03.080Z,8.95
2019-02-28T10:10:33.140Z,8.60
2019-02-28T10:13:02.166Z,8.88
2019-02-28T10:15:31.156Z,10.10
2019-02-28T10:18:00.746Z,8.23
2019-02-28T10:20:37.936Z,6.60
2019-02-28T10:23:06.920Z,8.40
2019-02-28T10:25:40.404Z,7.83
2019-02-28T10:28:06.561Z,9.45
2019-02-28T10:30:35.449Z,10.95
2019-02-28T10:33:04.547Z,10.05
2019-02-28T10:35:36.354Z,8.95
2019-02-28T10:38:04.068Z,11.18
2019-02-28T10:40:33.063Z,11.00
2019-02-28T10:43:02.055Z,12.98
2019-02-28T10:45:31.047Z,14.25
2019-02-28T10:48:02.864Z,16.97
2019-02-28T10:50:33.159Z,30.92
2019-02-28T10:53:05.440Z,30.75
2019-02-28T10:55:33.779Z,36.08
2019-02-28T10:58:02.892Z,13.32
2019-02-28T11:00:34.838Z,12.20
2019-02-28T11:03:03.808Z,11.75
2019-02-28T11:05:34.973Z,7.92
2019-02-28T11:08:04.889Z,8.23
2019-02-28T11:10:37.028Z,10.28
2019-02-28T11:13:17.387Z,10.35
2019-02-28T11:15:48.398Z,12.58
2019-02-28T11:18:17.148Z,11.93
2019-02-28T11:20:46.262Z,9.53
2019-02-28T11:23:15.931Z,13.28
2019-02-28T11:25:45.235Z,14.70
2019-02-28T11:28:14.776Z,14.07
2019-02-28T11:30:46.200Z,13.35
2019-02-28T11:33:16.221Z,11.55
2019-02-28T11:35:45.315Z,12.53
2019-02-28T11:38:17.493Z,11.10
2019-02-28T11:40:45.145Z,11.60
2019-02-28T11:43:14.445Z,7.85
2019-02-28T11:45:45.773Z,8.28
2019-02-28T11:48:20.525Z,6.95
2019-02-28T11:50:49.599Z,5.55
2019-02-28T11:53:19.256Z,5.67
2019-02-28T11:55:48.411Z,5.30
2019-02-28T12:00:51.602Z,5.28
2019-02-28T12:03:20.522Z,7.60
2019-02-28T12:05:50.623Z,8.20
2019-02-28T12:08:19.919Z,8.23
2019-02-28T12:10:49.037Z,7.80
2019-02-28T12:13:19.683Z,6.85
2019-02-28T12:15:48.561Z,7.47
2019-02-28T12:18:17.554Z,8.95
2019-02-28T12:20:46.548Z,7.47
2019-02-28T12:23:15.540Z,7.60
2019-02-28T12:25:44.533Z,7.72
2019-02-28T12:28:13.529Z,7.87
2019-02-28T12:30:42.618Z,9.35
2019-02-28T12:33:11.513Z,7.90
2019-02-28T12:35:40.774Z,7.60
2019-02-28T12:38:09.807Z,5.37
2019-02-28T12:40:42.637Z,5.47
2019-02-28T12:43:15.168Z,5.28
2019-02-28T12:48:15.300Z,3.20
2019-02-28T12:50:44.292Z,4.22
2019-02-28T12:53:13.286Z,5.05
2019-02-28T12:55:42.279Z,5.03
2019-02-28T12:58:11.157Z,3.45
2019-02-28T13:00:41.945Z,4.70
2019-02-28T13:03:11.298Z,3.85
2019-02-28T13:05:40.193Z,6.30
2019-02-28T13:08:09.394Z,8.00
2019-02-28T13:10:38.391Z,9.00
2019-02-28T13:13:07.805Z,9.65
2019-02-28T13:15:37.089Z,11.10
2019-02-28T13:18:09.017Z,7.03
2019-02-28T13:20:39.936Z,8.70
2019-02-28T13:23:08.785Z,11.25
2019-02-28T13:25:37.767Z,11.65
2019-02-28T13:28:08.198Z,9.43
2019-02-28T13:30:39.802Z,13.85
2019-02-28T13:33:10.931Z,12.03
2019-02-28T13:35:44.776Z,13.38
2019-02-28T13:38:17.466Z,9.63
2019-02-28T13:40:44.690Z,9.80
2019-02-28T13:43:20.201Z,6.37
2019-02-28T13:45:43.040Z,4.15
2019-02-28T13:48:12.026Z,4.90
2019-02-28T13:50:41.117Z,3.87
2019-02-28T13:53:18.499Z,4.47
2019-02-28T13:55:40.946Z,4.78
2019-02-28T13:58:09.854Z,4.35
2019-02-28T14:00:43.705Z,5.92
2019-02-28T14:03:13.428Z,6.80
2019-02-28T14:05:42.351Z,6.30
2019-02-28T14:08:12.205Z,7.87
2019-02-28T14:10:41.870Z,8.15
2019-02-28T14:13:10.868Z,7.97
2019-02-28T14:15:42.314Z,6.45
2019-02-28T14:18:11.612Z,6.53
2019-02-28T14:20:40.920Z,6.87
2019-02-28T14:23:10.400Z,6.97
2019-02-28T14:25:39.659Z,10.10
2019-02-28T14:28:10.120Z,18.25
2019-02-28T14:30:39.104Z,15.08
2019-02-28T14:33:08.661Z,14.40
2019-02-28T14:35:38.659Z,27.30
2019-02-28T14:38:08.272Z,11.68
2019-02-28T14:40:37.469Z,13.93
2019-02-28T14:43:06.462Z,10.93
2019-02-28T14:45:43.971Z,10.15
2019-02-28T14:48:13.147Z,10.00
2019-02-28T14:50:42.116Z,14.10
2019-02-28T14:53:14.283Z,12.00
2019-02-28T14:55:41.662Z,9.23
2019-02-28T14:58:10.560Z,8.03
2019-02-28T15:00:42.463Z,10.15
2019-02-28T15:03:10.386Z,11.15
2019-02-28T15:05:41.125Z,14.47
2019-02-28T15:08:11.835Z,12.68
2019-02-28T15:10:41.150Z,12.00
2019-02-28T15:13:10.146Z,11.05
2019-02-28T15:15:39.146Z,11.33
2019-02-28T15:18:10.919Z,10.65
2019-02-28T15:20:38.660Z,12.85
2019-02-28T15:23:07.555Z,11.95
2019-02-28T15:25:37.469Z,11.43
2019-02-28T15:28:06.352Z,9.58
2019-02-28T15:30:40.449Z,5.67
2019-02-28T15:33:09.297Z,3.42
2019-02-28T15:35:38.357Z,4.03
2019-02-28T15:38:09.137Z,2.77
2019-02-28T15:40:40.673Z,2.22
2019-02-28T15:43:09.834Z,4.95
2019-02-28T15:45:40.265Z,5.05
2019-02-28T15:48:09.164Z,3.95
2019-02-28T15:50:38.157Z,4.70
2019-02-28T15:53:07.764Z,4.12
2019-02-28T15:55:37.161Z,2.87
2019-02-28T15:58:06.993Z,3.30
2019-02-28T16:00:37.132Z,2.98
2019-02-28T16:03:06.693Z,7.03
2019-02-28T16:05:42.488Z,6.75
2019-02-28T16:08:10.473Z,4.62
2019-02-28T16:10:37.045Z,5.12
2019-02-28T16:13:07.392Z,6.65
2019-02-28T16:15:36.378Z,5.50
2019-02-28T16:18:08.654Z,6.67
2019-02-28T16:20:38.117Z,3.95
2019-02-28T16:23:07.023Z,7.22
2019-02-28T16:25:37.866Z,5.00
2019-02-28T16:28:08.941Z,6.20
2019-02-28T16:30:39.548Z,6.53
2019-02-28T16:33:08.437Z,5.60
2019-02-28T16:35:37.440Z,6.53
2019-02-28T16:38:09.551Z,5.28
2019-02-28T16:40:36.852Z,11.15
2019-02-28T16:43:05.748Z,12.15
2019-02-28T16:45:37.590Z,9.03
2019-02-28T16:48:07.730Z,6.90
2019-02-28T16:50:36.820Z,9.20
2019-02-28T16:53:06.038Z,6.17
2019-02-28T16:55:35.112Z,4.95
2019-02-28T16:58:03.940Z,6.65
2019-02-28T17:00:32.998Z,4.28
2019-02-28T17:03:04.082Z,6.10
2019-02-28T17:05:32.414Z,5.70
2019-02-28T17:08:01.305Z,9.73
2019-02-28T17:10:40.060Z,7.40
2019-02-28T17:13:25.682Z,3.62
2019-02-28T17:16:05.415Z,6.15
2019-02-28T17:18:38.665Z,8.10
2019-02-28T17:21:07.644Z,8.68
2019-02-28T17:23:37.075Z,12.18
2019-02-28T17:26:07.268Z,6.92
2019-02-28T17:28:54.703Z,6.72
2019-02-28T17:31:37.306Z,6.87
2019-02-28T17:36:34.265Z,5.17
2019-02-28T17:39:03.444Z,6.00
2019-02-28T17:41:33.883Z,6.35
2019-02-28T17:44:28.106Z,5.78
2019-02-28T17:47:02.626Z,10.98
2019-02-28T17:50:09.308Z,10.93
2019-02-28T17:52:44.033Z,8.40
2019-02-28T17:55:31.954Z,8.53
2019-02-28T17:58:06.694Z,4.42
2019-02-28T18:00:42.592Z,7.17
2019-02-28T18:03:23.115Z,5.05
2019-02-28T18:06:00.700Z,6.80
2019-02-28T18:08:41.322Z,5.53
2019-02-28T18:11:45.151Z,5.17
2019-02-28T18:14:22.636Z,6.08
2019-02-28T18:17:09.519Z,6.78
2019-02-28T18:19:59.250Z,5.53
2019-02-28T18:22:57.924Z,9.23
2019-02-28T18:25:52.205Z,8.20
2019-02-28T18:28:47.007Z,7.65
2019-02-28T18:31:19.062Z,6.53
2019-02-28T18:33:50.095Z,7.57
2019-02-28T18:36:22.307Z,6.10
2019-02-28T18:38:51.255Z,6.08
2019-02-28T18:41:20.274Z,5.65
2019-02-28T18:43:49.166Z,6.80
2019-02-28T18:46:18.158Z,6.15
2019-02-28T18:48:47.157Z,7.97
2019-02-28T18:51:16.730Z,5.62
2019-02-28T18:53:45.847Z,7.05
2019-02-28T18:56:14.721Z,6.35
2019-02-28T18:58:43.612Z,6.58
2019-02-28T19:01:12.518Z,4.58
2019-02-28T19:03:41.411Z,4.95
2019-02-28T19:06:10.295Z,5.75
2019-02-28T19:08:39.137Z,5.65
2019-02-28T19:11:08.086Z,4.95
2019-02-28T19:13:37.079Z,5.67
2019-02-28T19:16:06.072Z,3.80
2019-02-28T19:18:35.064Z,2.60
2019-02-28T19:21:04.056Z,3.42
2019-02-28T19:23:33.049Z,2.60
2019-02-28T19:26:02.040Z,3.17
2019-02-28T19:28:31.035Z,3.30
2019-02-28T19:30:59.931Z,3.27
2019-02-28T19:33:29.024Z,3.27
2019-02-28T19:35:58.015Z,2.27
2019-02-28T19:38:27.007Z,2.67
2019-02-28T19:40:56.198Z,8.10
2019-02-28T19:43:25.094Z,9.38
2019-02-28T19:45:56.238Z,6.37
2019-02-28T19:48:25.179Z,8.90
2019-02-28T19:50:54.062Z,5.62
2019-02-28T19:53:23.121Z,9.10
2019-02-28T19:55:52.404Z,5.55
2019-02-28T19:58:21.696Z,3.22
2019-02-28T20:00:51.989Z,3.20
2019-02-28T20:03:22.055Z,3.45
2019-02-28T20:05:50.946Z,3.50
2019-02-28T20:08:20.835Z,2.62
2019-02-28T20:10:49.756Z,1.82
2019-02-28T20:13:19.054Z,2.00
2019-02-28T20:15:48.085Z,3.15
2019-02-28T20:18:17.045Z,2.30
2019-02-28T20:20:46.035Z,2.40
2019-02-28T20:23:15.030Z,3.42
2019-02-28T20:25:44.021Z,2.40
2019-02-28T20:28:13.221Z,4.20
2019-02-28T20:30:42.288Z,3.42
2019-02-28T20:33:11.199Z,3.27
2019-02-28T20:35:40.299Z,2.30
2019-02-28T20:38:09.292Z,4.22
2019-02-28T20:40:38.691Z,2.85
2019-02-28T20:43:09.321Z,2.92
2019-02-28T20:45:38.242Z,3.27
2019-02-28T20:48:07.110Z,3.90
2019-02-28T20:50:46.177Z,2.52
2019-02-28T20:53:15.333Z,4.20
2019-02-28T20:55:44.201Z,7.53
2019-02-28T20:58:13.218Z,6.00
2019-02-28T21:00:42.210Z,2.98
2019-02-28T21:03:11.237Z,2.90
2019-02-28T21:05:40.198Z,3.20
2019-02-28T21:08:09.197Z,3.20
2019-02-28T21:10:39.235Z,3.30
2019-02-28T21:13:08.197Z,5.70
2019-02-28T21:15:37.190Z,3.45
2019-02-28T21:18:12.229Z,3.30
2019-02-28T21:20:42.421Z,3.35
2019-02-28T21:23:11.544Z,4.10
2019-02-28T21:25:40.423Z,2.98
2019-02-28T21:28:09.429Z,3.85
2019-02-28T21:30:39.398Z,3.05
2019-02-28T21:33:08.437Z,2.55
2019-02-28T21:35:37.331Z,3.87
2019-02-28T21:38:06.327Z,3.95
2019-02-28T21:40:35.250Z,3.40
2019-02-28T21:43:04.389Z,2.37
2019-02-28T21:45:33.791Z,2.75
2019-02-28T21:48:02.918Z,2.47
2019-02-28T21:50:31.785Z,3.27
2019-02-28T21:53:00.688Z,2.27
2019-02-28T21:55:29.621Z,2.12
2019-02-28T21:57:58.577Z,3.77
2019-02-28T22:00:29.722Z,4.45
2019-02-28T22:02:58.549Z,3.42
2019-02-28T22:05:27.496Z,3.42
2019-02-28T22:07:57.625Z,3.25
2019-02-28T22:10:26.617Z,4.47
2019-02-28T22:12:55.611Z,2.83
2019-02-28T22:15:25.538Z,2.35
2019-02-28T22:17:54.492Z,2.42
2019-02-28T22:20:23.508Z,2.90
2019-02-28T22:22:52.394Z,2.33
2019-02-28T22:25:21.289Z,3.70
2019-02-28T22:27:50.188Z,2.85
2019-02-28T22:30:32.999Z,2.65
2019-02-28T22:33:15.813Z,2.47
2019-02-28T22:35:46.549Z,1.80
2019-02-28T22:38:15.416Z,1.90
2019-02-28T22:40:44.264Z,2.27
2019-02-28T22:43:14.426Z,2.10
2019-02-28T22:45:43.437Z,2.22
2019-02-28T22:48:12.537Z,2.50
2019-02-28T22:50:41.577Z,2.70
2019-02-28T22:53:10.524Z,2.60
2019-02-28T22:55:39.516Z,2.20
2019-02-28T22:58:10.241Z,2.15
2019-02-28T23:01:01.360Z,1.95
2019-02-28T23:03:32.565Z,1.92
2019-02-28T23:06:01.601Z,1.72
2019-02-28T23:08:30.596Z,1.10
2019-02-28T23:10:59.589Z,1.15
2019-02-28T23:13:28.580Z,1.67
2019-02-28T23:15:57.453Z,1.17
2019-02-28T23:18:26.448Z,1.30
2019-02-28T23:20:55.350Z,1.10
2019-02-28T23:23:24.247Z,1.22
2019-02-28T23:25:53.067Z,1.82
2019-02-28T23:28:31.008Z,0.98
2019-02-28T23:31:27.169Z,1.50
2019-02-28T23:34:01.516Z,1.27
2019-02-28T23:36:29.534Z,1.30
2019-02-28T23:38:58.450Z,1.40
2019-02-28T23:41:27.440Z,1.65
2019-02-28T23:43:56.323Z,1.30
2019-02-28T23:46:25.221Z,1.30
2019-02-28T23:48:54.111Z,2.27
2019-02-28T23:51:23.105Z,1.72
2019-02-28T23:53:52.098Z,1.20
2019-02-28T23:56:22.018Z,1.70
2019-02-28T23:58:51.009Z,1.70
